createdAt,value
2019-03-27T00:00:27.788Z,153.13
2019-03-27T00:02:57.337Z,147.47
2019-03-27T00:05:25.845Z,154.00
2019-03-27T00:07:54.409Z,151.83
2019-03-27T00:10:22.909Z,147.87
2019-03-27T00:12:51.417Z,165.77
2019-03-27T00:15:20.455Z,162.37
2019-03-27T00:17:49.014Z,148.03
2019-03-27T00:20:17.586Z,164.67
2019-03-27T00:22:46.130Z,161.00
2019-03-27T00:25:14.551Z,164.57
2019-03-27T00:27:42.805Z,155.73
2019-03-27T00:30:11.601Z,152.73
2019-03-27T00:32:40.188Z,153.37
2019-03-27T00:35:08.755Z,161.87
2019-03-27T00:37:37.298Z,158.97
2019-03-27T00:40:06.289Z,164.77
2019-03-27T00:42:34.769Z,166.03
2019-03-27T00:45:04.303Z,171.10
2019-03-27T00:47:32.738Z,167.37
2019-03-27T00:50:01.230Z,167.93
2019-03-27T00:52:29.710Z,164.03
2019-03-27T00:54:58.127Z,178.57
2019-03-27T00:57:26.622Z,167.90
2019-03-27T00:59:55.168Z,169.83
2019-03-27T01:02:23.651Z,164.00
2019-03-27T01:04:53.142Z,164.47
2019-03-27T01:07:21.763Z,161.77
2019-03-27T01:09:50.182Z,164.53
2019-03-27T01:12:18.755Z,160.33
2019-03-27T01:14:48.857Z,161.03
2019-03-27T01:17:17.029Z,166.43
2019-03-27T01:19:45.533Z,160.43
2019-03-27T01:22:14.153Z,171.43
2019-03-27T01:24:42.570Z,162.63
2019-03-27T01:27:11.074Z,169.20
2019-03-27T01:29:39.692Z,169.73
2019-03-27T01:32:08.194Z,166.10
2019-03-27T01:34:36.750Z,162.07
2019-03-27T01:37:05.369Z,162.13
2019-03-27T01:39:33.789Z,170.00
2019-03-27T01:42:02.350Z,162.27
2019-03-27T01:44:30.886Z,164.90
2019-03-27T01:46:59.513Z,168.40
2019-03-27T01:49:28.087Z,173.73
2019-03-27T01:51:56.571Z,174.47
2019-03-27T01:54:24.991Z,176.17
2019-03-27T01:56:53.405Z,182.43
2019-03-27T01:59:21.949Z,173.93
2019-03-27T02:01:50.508Z,187.93
2019-03-27T02:04:19.136Z,179.00
2019-03-27T02:06:48.553Z,191.23
2019-03-27T02:09:17.049Z,176.47
2019-03-27T02:11:45.539Z,198.77
2019-03-27T02:14:14.159Z,187.47
2019-03-27T02:16:42.654Z,194.83
2019-03-27T02:19:11.140Z,192.87
2019-03-27T02:21:39.693Z,199.77
2019-03-27T02:24:08.179Z,199.93
2019-03-27T02:26:36.745Z,203.57
2019-03-27T02:29:05.291Z,195.17
2019-03-27T02:31:33.948Z,186.90
2019-03-27T02:34:02.275Z,198.03
2019-03-27T02:36:30.818Z,196.13
2019-03-27T02:38:59.313Z,192.07
2019-03-27T02:41:27.804Z,198.63
2019-03-27T02:43:56.352Z,206.30
2019-03-27T02:46:25.643Z,195.83
2019-03-27T02:48:54.748Z,194.17
2019-03-27T02:51:23.306Z,184.87
2019-03-27T02:53:51.863Z,193.23
2019-03-27T02:56:20.383Z,185.37
2019-03-27T02:58:48.927Z,182.33
2019-03-27T03:01:17.415Z,197.83
2019-03-27T03:03:45.971Z,187.43
2019-03-27T03:06:14.515Z,186.53
2019-03-27T03:08:43.067Z,191.93
2019-03-27T03:11:11.665Z,206.90
2019-03-27T03:13:40.197Z,191.90
2019-03-27T03:16:08.819Z,196.37
2019-03-27T03:18:37.242Z,194.77
2019-03-27T03:21:05.859Z,187.93
2019-03-27T03:23:34.354Z,190.83
2019-03-27T03:26:02.876Z,188.37
2019-03-27T03:28:31.495Z,192.83
2019-03-27T03:31:00.013Z,185.70
2019-03-27T03:33:28.494Z,190.93
2019-03-27T03:35:57.101Z,184.10
2019-03-27T03:38:25.691Z,206.80
2019-03-27T03:40:54.088Z,179.20
2019-03-27T03:43:22.566Z,197.90
2019-03-27T03:45:51.155Z,200.13
2019-03-27T03:48:19.663Z,210.13
2019-03-27T03:50:48.214Z,190.93
2019-03-27T03:53:16.799Z,193.70
2019-03-27T03:55:45.361Z,188.10
2019-03-27T03:58:14.581Z,161.10
2019-03-27T04:00:43.152Z,162.10
2019-03-27T04:03:11.704Z,152.00
2019-03-27T04:05:40.250Z,172.87
2019-03-27T04:08:08.674Z,174.63
2019-03-27T04:10:37.304Z,187.50
2019-03-27T04:13:05.929Z,170.73
2019-03-27T04:15:34.485Z,153.07
2019-03-27T04:18:02.976Z,163.23
2019-03-27T04:20:31.529Z,194.33
2019-03-27T04:23:00.090Z,172.37
2019-03-27T04:25:28.646Z,178.80
2019-03-27T04:27:57.204Z,163.83
2019-03-27T04:30:25.711Z,156.27
2019-03-27T04:32:54.200Z,138.47
2019-03-27T04:35:22.692Z,190.50
2019-03-27T04:37:51.172Z,165.87
2019-03-27T04:40:19.669Z,188.63
2019-03-27T04:42:48.216Z,173.93
2019-03-27T04:45:17.116Z,189.93
2019-03-27T04:47:45.773Z,172.10
2019-03-27T04:50:14.329Z,147.87
2019-03-27T04:52:42.889Z,172.03
2019-03-27T04:55:11.786Z,192.63
2019-03-27T04:57:40.402Z,162.47
2019-03-27T05:00:09.437Z,93.87
2019-03-27T05:02:38.004Z,150.80
2019-03-27T05:05:07.891Z,165.73
2019-03-27T05:07:36.454Z,162.37
2019-03-27T05:10:06.256Z,181.87
2019-03-27T05:12:38.211Z,183.67
2019-03-27T05:15:06.469Z,193.17
2019-03-27T05:17:45.127Z,191.40
2019-03-27T05:20:07.185Z,183.97
2019-03-27T05:22:35.699Z,183.47
2019-03-27T05:25:05.365Z,185.67
2019-03-27T05:27:36.319Z,145.67
2019-03-27T05:30:05.816Z,171.07
2019-03-27T05:32:34.231Z,157.07
2019-03-27T05:35:02.870Z,190.80
2019-03-27T05:37:31.519Z,204.50
2019-03-27T05:40:00.014Z,198.63
2019-03-27T05:42:29.051Z,174.67
2019-03-27T05:44:57.698Z,152.33
2019-03-27T05:47:26.207Z,131.37
2019-03-27T05:49:54.751Z,102.60
2019-03-27T05:52:23.167Z,76.40
2019-03-27T05:54:51.782Z,53.30
2019-03-27T05:57:20.403Z,50.83
2019-03-27T05:59:48.893Z,55.97
2019-03-27T06:02:17.464Z,85.97
2019-03-27T06:04:46.012Z,140.07
2019-03-27T06:07:14.560Z,104.10
2019-03-27T06:09:43.056Z,90.97
2019-03-27T06:12:12.922Z,93.83
2019-03-27T06:14:41.442Z,84.70
2019-03-27T06:17:10.027Z,97.50
2019-03-27T06:19:38.508Z,114.50
2019-03-27T06:22:06.999Z,188.20
2019-03-27T06:24:38.444Z,169.67
2019-03-27T06:27:07.062Z,186.10
2019-03-27T06:29:35.562Z,175.33
2019-03-27T06:32:04.184Z,155.77
2019-03-27T06:34:32.814Z,144.90
2019-03-27T06:37:01.382Z,129.73
2019-03-27T06:39:29.871Z,147.93
2019-03-27T06:41:58.503Z,140.23
2019-03-27T06:44:27.069Z,143.13
2019-03-27T06:46:55.625Z,99.90
2019-03-27T06:49:24.230Z,73.90
2019-03-27T06:51:52.734Z,204.63
2019-03-27T06:54:21.222Z,211.27
2019-03-27T06:56:49.872Z,199.53
2019-03-27T06:59:18.503Z,215.03
2019-03-27T07:01:47.136Z,200.97
2019-03-27T07:04:15.768Z,211.13
2019-03-27T07:06:44.312Z,195.90
2019-03-27T07:09:12.698Z,208.13
2019-03-27T07:11:41.462Z,200.53
2019-03-27T07:14:10.967Z,216.37
2019-03-27T07:16:39.458Z,195.70
2019-03-27T07:19:08.001Z,217.43
2019-03-27T07:21:36.432Z,206.03
2019-03-27T07:24:04.912Z,201.33
2019-03-27T07:26:35.087Z,197.10
2019-03-27T07:29:03.678Z,197.20
2019-03-27T07:31:32.143Z,198.83
2019-03-27T07:34:00.769Z,197.57
2019-03-27T07:36:29.327Z,186.77
2019-03-27T07:39:10.383Z,204.77
2019-03-27T07:41:28.170Z,190.37
2019-03-27T07:43:56.804Z,193.93
2019-03-27T07:46:25.282Z,209.17
2019-03-27T07:48:54.533Z,197.17
2019-03-27T07:51:23.283Z,183.23
2019-03-27T07:53:51.780Z,189.20
2019-03-27T07:56:20.425Z,183.70
2019-03-27T07:58:48.916Z,183.33
2019-03-27T08:01:17.490Z,181.23
2019-03-27T08:03:46.226Z,184.40
2019-03-27T08:06:14.700Z,184.17
2019-03-27T08:08:43.199Z,193.40
2019-03-27T08:11:11.887Z,185.80
2019-03-27T08:13:40.447Z,195.10
2019-03-27T08:16:09.972Z,190.57
2019-03-27T08:18:40.587Z,184.90
2019-03-27T08:21:09.120Z,184.07
2019-03-27T08:23:37.687Z,184.13
2019-03-27T08:26:06.258Z,179.93
2019-03-27T08:28:34.838Z,181.63
2019-03-27T08:31:03.335Z,194.33
2019-03-27T08:33:31.953Z,181.17
2019-03-27T08:36:00.510Z,180.70
2019-03-27T08:38:29.012Z,189.47
2019-03-27T08:40:57.633Z,195.80
2019-03-27T08:43:26.211Z,175.43
2019-03-27T08:45:54.826Z,184.80
2019-03-27T08:48:23.393Z,182.50
2019-03-27T08:50:51.957Z,187.83
2019-03-27T08:53:20.465Z,178.50
2019-03-27T08:55:49.411Z,178.27
2019-03-27T08:58:18.175Z,182.10
2019-03-27T09:00:49.169Z,186.90
2019-03-27T09:03:17.720Z,188.73
2019-03-27T09:05:46.426Z,181.00
2019-03-27T09:08:15.236Z,182.80
2019-03-27T09:10:43.904Z,184.80
2019-03-27T09:13:12.225Z,180.17
2019-03-27T09:15:41.133Z,182.27
2019-03-27T09:18:10.799Z,185.53
2019-03-27T09:20:39.470Z,189.83
2019-03-27T09:23:08.208Z,184.60
2019-03-27T09:25:36.998Z,188.07
2019-03-27T09:28:05.830Z,182.77
2019-03-27T09:30:34.524Z,181.13
2019-03-27T09:33:03.203Z,184.73
2019-03-27T09:35:31.872Z,190.50
2019-03-27T09:38:00.563Z,184.30
2019-03-27T09:40:29.355Z,186.47
2019-03-27T09:42:58.105Z,176.87
2019-03-27T09:45:26.979Z,181.60
2019-03-27T09:47:55.863Z,177.80
2019-03-27T09:50:27.204Z,181.30
2019-03-27T09:52:55.926Z,183.87
2019-03-27T09:55:24.612Z,183.10
2019-03-27T09:57:53.258Z,180.63
2019-03-27T10:00:31.137Z,187.00
2019-03-27T10:02:59.715Z,176.60
2019-03-27T10:05:28.424Z,190.20
2019-03-27T10:07:57.081Z,187.77
2019-03-27T10:10:25.880Z,179.00
2019-03-27T10:12:54.386Z,182.20
2019-03-27T10:15:23.143Z,176.43
2019-03-27T10:17:51.860Z,192.07
2019-03-27T10:20:21.690Z,190.80
2019-03-27T10:22:50.357Z,190.47
2019-03-27T10:25:19.064Z,140.03
2019-03-27T10:27:47.774Z,76.83
2019-03-27T10:30:16.444Z,10.07
2019-03-27T10:32:45.168Z,30.07
2019-03-27T10:35:13.781Z,34.30
2019-03-27T10:37:42.496Z,13.67
2019-03-27T10:40:11.201Z,15.80
2019-03-27T10:42:39.919Z,8.73
2019-03-27T10:45:08.809Z,193.17
2019-03-27T10:47:37.468Z,228.47
2019-03-27T10:50:16.963Z,223.97
2019-03-27T10:52:37.290Z,234.17
2019-03-27T10:55:06.067Z,150.47
2019-03-27T10:57:34.751Z,226.47
2019-03-27T11:00:05.513Z,197.57
2019-03-27T11:02:53.503Z,202.20
2019-03-27T11:05:22.211Z,210.23
2019-03-27T11:07:50.801Z,222.63
2019-03-27T11:10:19.470Z,208.30
2019-03-27T11:12:48.114Z,200.67
2019-03-27T11:15:16.611Z,225.87
2019-03-27T11:17:45.200Z,203.87
2019-03-27T11:20:13.883Z,203.53
2019-03-27T11:22:43.296Z,203.97
2019-03-27T11:25:11.940Z,197.50
2019-03-27T11:27:40.669Z,211.90
2019-03-27T11:30:09.293Z,317.67
2019-03-27T11:32:40.583Z,207.00
2019-03-27T11:35:09.290Z,209.77
2019-03-27T11:37:37.891Z,207.37
2019-03-27T11:40:06.388Z,210.07
2019-03-27T11:42:34.952Z,208.47
2019-03-27T11:45:04.912Z,215.37
2019-03-27T11:47:33.585Z,210.57
2019-03-27T11:50:02.301Z,234.63
2019-03-27T11:52:30.976Z,219.30
2019-03-27T11:54:59.617Z,209.23
2019-03-27T11:57:28.274Z,204.77
2019-03-27T11:59:56.833Z,204.80
2019-03-27T12:02:54.345Z,30.67
2019-03-27T12:05:22.979Z,15.10
2019-03-27T12:07:51.516Z,115.17
2019-03-27T12:10:20.044Z,133.70
2019-03-27T12:12:48.786Z,170.57
2019-03-27T12:15:20.510Z,190.90
2019-03-27T12:17:49.130Z,176.00
2019-03-27T12:20:17.769Z,176.33
2019-03-27T12:22:57.315Z,179.10
2019-03-27T12:25:16.773Z,179.23
2019-03-27T12:27:45.294Z,179.67
2019-03-27T12:30:14.353Z,174.77
2019-03-27T12:32:42.916Z,175.53
2019-03-27T12:35:11.495Z,181.50
2019-03-27T12:37:40.062Z,178.37
2019-03-27T12:40:11.944Z,168.80
2019-03-27T12:42:39.059Z,182.90
2019-03-27T12:45:08.329Z,116.60
2019-03-27T12:47:37.117Z,198.37
2019-03-27T12:50:07.289Z,200.10
2019-03-27T12:52:35.971Z,185.43
2019-03-27T12:55:05.425Z,185.47
2019-03-27T12:57:34.052Z,181.87
2019-03-27T13:00:02.718Z,193.97
2019-03-27T13:02:31.386Z,182.03
2019-03-27T13:05:00.000Z,184.80
2019-03-27T13:07:28.531Z,187.60
2019-03-27T13:09:57.272Z,183.20
2019-03-27T13:12:25.888Z,185.97
2019-03-27T13:14:54.563Z,181.57
2019-03-27T13:17:23.203Z,147.93
2019-03-27T13:19:51.696Z,106.07
2019-03-27T13:22:20.292Z,107.87
2019-03-27T13:24:51.130Z,57.90
2019-03-27T13:27:19.686Z,15.97
2019-03-27T13:29:48.249Z,170.10
2019-03-27T13:32:16.829Z,182.63
2019-03-27T13:34:45.510Z,188.30
2019-03-27T13:37:14.013Z,192.13
2019-03-27T13:39:42.590Z,182.37
2019-03-27T13:42:11.153Z,184.70
2019-03-27T13:44:39.790Z,201.07
2019-03-27T13:47:08.437Z,182.27
2019-03-27T13:49:37.282Z,148.43
2019-03-27T13:52:06.163Z,60.97
2019-03-27T13:54:34.786Z,20.40
2019-03-27T13:57:03.325Z,57.70
2019-03-27T13:59:31.904Z,128.77
2019-03-27T14:02:00.618Z,147.80
2019-03-27T14:04:29.687Z,63.50
2019-03-27T14:06:58.386Z,22.80
2019-03-27T14:09:26.916Z,23.13
2019-03-27T14:11:55.537Z,35.60
2019-03-27T14:14:24.257Z,29.77
2019-03-27T14:16:52.937Z,43.73
2019-03-27T14:19:21.822Z,61.20
2019-03-27T14:21:54.758Z,18.77
2019-03-27T14:24:20.701Z,28.73
2019-03-27T14:26:49.295Z,14.50
2019-03-27T14:29:17.770Z,13.87
2019-03-27T14:31:46.372Z,16.33
2019-03-27T14:34:14.928Z,16.47
2019-03-27T14:36:43.537Z,16.30
2019-03-27T14:39:12.101Z,17.27
2019-03-27T14:41:40.667Z,15.27
2019-03-27T14:44:09.236Z,13.60
2019-03-27T14:46:37.863Z,13.30
2019-03-27T14:49:06.408Z,12.43
2019-03-27T14:51:34.959Z,7.67
2019-03-27T14:54:03.657Z,13.67
2019-03-27T14:56:32.171Z,14.73
2019-03-27T14:59:02.378Z,8.10
2019-03-27T15:01:31.127Z,14.87
2019-03-27T15:03:59.650Z,17.00
2019-03-27T15:06:28.133Z,21.77
2019-03-27T15:08:56.691Z,31.40
2019-03-27T15:11:25.180Z,15.03
2019-03-27T15:13:54.036Z,12.60
2019-03-27T15:16:22.579Z,11.33
2019-03-27T15:18:52.668Z,14.63
2019-03-27T15:21:21.347Z,10.67
2019-03-27T15:23:49.978Z,16.53
2019-03-27T15:26:19.424Z,25.03
2019-03-27T15:28:50.644Z,14.97
2019-03-27T15:31:20.771Z,14.53
2019-03-27T15:33:48.541Z,12.77
2019-03-27T15:36:17.106Z,24.93
2019-03-27T15:38:45.749Z,13.60
2019-03-27T15:41:14.315Z,10.03
2019-03-27T15:43:42.780Z,12.23
2019-03-27T15:46:11.990Z,12.47
2019-03-27T15:48:40.626Z,12.90
2019-03-27T15:51:09.360Z,16.13
2019-03-27T15:53:38.007Z,11.27
2019-03-27T15:56:06.580Z,19.17
2019-03-27T15:58:35.683Z,18.57
2019-03-27T16:01:04.891Z,14.20
2019-03-27T16:03:33.450Z,14.27
2019-03-27T16:06:02.007Z,15.10
2019-03-27T16:08:30.798Z,14.37
2019-03-27T16:10:59.372Z,18.80
2019-03-27T16:13:27.995Z,13.77
2019-03-27T16:15:56.633Z,10.30
2019-03-27T16:18:28.420Z,13.50
2019-03-27T16:20:56.918Z,18.70
2019-03-27T16:23:25.530Z,15.77
2019-03-27T16:25:54.097Z,7.50
2019-03-27T16:28:22.593Z,18.30
2019-03-27T16:30:52.426Z,34.50
2019-03-27T16:33:20.754Z,229.17
2019-03-27T16:35:49.399Z,212.77
2019-03-27T16:38:18.147Z,224.47
2019-03-27T16:40:47.263Z,207.77
2019-03-27T16:43:15.878Z,251.00
2019-03-27T16:45:44.653Z,194.40
2019-03-27T16:48:13.414Z,206.93
2019-03-27T16:50:42.097Z,185.03
2019-03-27T16:53:11.478Z,191.83
2019-03-27T16:55:40.304Z,184.07
2019-03-27T16:58:09.184Z,188.50
2019-03-27T17:00:37.945Z,183.17
2019-03-27T17:03:06.672Z,193.03
2019-03-27T17:05:35.222Z,191.47
2019-03-27T17:08:03.846Z,191.53
2019-03-27T17:10:33.984Z,183.57
2019-03-27T17:13:02.546Z,189.20
2019-03-27T17:15:31.090Z,200.33
2019-03-27T17:17:59.702Z,224.93
2019-03-27T17:20:28.359Z,223.07
2019-03-27T17:22:56.969Z,21.17
2019-03-27T17:25:25.605Z,26.97
2019-03-27T17:27:55.899Z,15.30
2019-03-27T17:30:24.831Z,19.83
2019-03-27T17:32:53.557Z,23.83
2019-03-27T17:35:22.147Z,110.40
2019-03-27T17:37:50.859Z,26.10
2019-03-27T17:40:21.067Z,23.00
2019-03-27T17:42:49.657Z,16.53
2019-03-27T17:45:18.443Z,18.20
2019-03-27T17:47:47.158Z,19.47
2019-03-27T17:50:16.123Z,20.70
2019-03-27T17:52:44.420Z,204.47
2019-03-27T17:55:13.220Z,196.10
2019-03-27T17:57:41.715Z,200.10
2019-03-27T18:00:12.463Z,190.83
2019-03-27T18:02:41.266Z,195.43
2019-03-27T18:05:10.479Z,193.60
2019-03-27T18:07:39.304Z,206.80
2019-03-27T18:10:08.261Z,188.97
2019-03-27T18:12:36.887Z,193.23
2019-03-27T18:15:05.863Z,195.00
2019-03-27T18:17:34.959Z,215.87
2019-03-27T18:20:04.076Z,200.87
2019-03-27T18:22:33.572Z,197.77
2019-03-27T18:25:02.590Z,187.97
2019-03-27T18:27:31.197Z,197.07
2019-03-27T18:30:00.054Z,201.20
2019-03-27T18:32:28.665Z,195.40
2019-03-27T18:34:57.089Z,202.80
2019-03-27T18:37:25.666Z,179.83
2019-03-27T18:39:54.343Z,188.87
2019-03-27T18:42:24.435Z,187.30
2019-03-27T18:44:53.257Z,183.10
2019-03-27T18:47:21.528Z,188.17
2019-03-27T18:49:49.971Z,186.27
2019-03-27T18:52:18.736Z,193.20
2019-03-27T18:54:47.353Z,197.97
2019-03-27T18:57:16.000Z,186.00
2019-03-27T18:59:44.775Z,187.07
2019-03-27T19:02:13.411Z,198.37
2019-03-27T19:04:41.971Z,189.93
2019-03-27T19:07:11.147Z,201.53
2019-03-27T19:09:39.453Z,187.23
2019-03-27T19:12:08.014Z,181.20
2019-03-27T19:14:36.667Z,186.33
2019-03-27T19:17:05.587Z,187.10
2019-03-27T19:19:34.312Z,189.53
2019-03-27T19:22:03.043Z,177.00
2019-03-27T19:24:31.712Z,190.20
2019-03-27T19:27:00.347Z,184.00
2019-03-27T19:29:29.225Z,201.70
2019-03-27T19:31:58.795Z,193.53
2019-03-27T19:34:33.317Z,204.80
2019-03-27T19:37:01.871Z,193.20
2019-03-27T19:39:30.402Z,192.23
2019-03-27T19:41:59.077Z,190.60
2019-03-27T19:44:27.716Z,184.20
2019-03-27T19:46:56.281Z,189.47
2019-03-27T19:49:24.938Z,187.53
2019-03-27T19:51:53.695Z,197.70
2019-03-27T19:54:27.428Z,190.67
2019-03-27T19:56:53.259Z,202.33
2019-03-27T19:59:22.123Z,191.07
2019-03-27T20:01:50.641Z,187.37
2019-03-27T20:04:21.165Z,193.30
2019-03-27T20:06:50.026Z,193.97
2019-03-27T20:09:18.703Z,197.10
2019-03-27T20:11:48.353Z,196.60
2019-03-27T20:14:17.249Z,191.03
2019-03-27T20:16:45.937Z,197.33
2019-03-27T20:19:14.580Z,194.23
2019-03-27T20:21:43.732Z,185.53
2019-03-27T20:24:12.454Z,189.33
2019-03-27T20:26:42.365Z,185.47
2019-03-27T20:29:12.516Z,186.23
2019-03-27T20:31:42.485Z,194.57
2019-03-27T20:34:11.072Z,195.03
2019-03-27T20:36:40.056Z,182.30
2019-03-27T20:39:09.117Z,209.40
2019-03-27T20:41:37.662Z,193.63
2019-03-27T20:44:06.335Z,201.30
2019-03-27T20:46:34.698Z,216.83
2019-03-27T20:49:03.332Z,205.17
2019-03-27T20:51:32.009Z,183.40
2019-03-27T20:54:01.582Z,205.60
2019-03-27T20:56:30.462Z,226.93
2019-03-27T20:59:01.332Z,204.17
2019-03-27T21:01:29.601Z,204.33
2019-03-27T21:03:59.490Z,200.87
2019-03-27T21:06:28.073Z,200.90
2019-03-27T21:08:58.682Z,197.43
2019-03-27T21:11:27.331Z,202.33
2019-03-27T21:13:56.024Z,188.93
2019-03-27T21:16:24.650Z,192.23
2019-03-27T21:18:53.507Z,197.50
2019-03-27T21:21:22.535Z,211.53
2019-03-27T21:23:51.301Z,199.53
2019-03-27T21:26:19.757Z,214.63
2019-03-27T21:28:48.462Z,196.87
2019-03-27T21:31:17.095Z,195.97
2019-03-27T21:33:46.820Z,207.37
2019-03-27T21:36:15.505Z,216.20
2019-03-27T21:38:44.010Z,202.97
2019-03-27T21:41:12.502Z,199.03
2019-03-27T21:43:41.227Z,236.93
2019-03-27T21:46:11.351Z,230.40
2019-03-27T21:48:41.232Z,220.33
2019-03-27T21:51:09.921Z,246.63
2019-03-27T21:53:38.475Z,226.63
2019-03-27T21:56:07.057Z,217.57
2019-03-27T21:58:35.739Z,229.20
2019-03-27T22:01:04.330Z,228.60
2019-03-27T22:03:32.886Z,222.53
2019-03-27T22:06:01.648Z,236.97
2019-03-27T22:08:30.146Z,226.13
2019-03-27T22:11:00.291Z,214.93
2019-03-27T22:13:28.864Z,220.10
2019-03-27T22:15:57.420Z,221.03
2019-03-27T22:18:25.834Z,229.90
2019-03-27T22:20:54.390Z,217.20
2019-03-27T22:23:23.221Z,216.50
2019-03-27T22:25:51.646Z,225.33
2019-03-27T22:28:20.339Z,223.03
2019-03-27T22:30:49.094Z,225.23
2019-03-27T22:33:17.672Z,214.03
2019-03-27T22:35:47.285Z,223.70
2019-03-27T22:38:15.537Z,168.27
2019-03-27T22:40:43.794Z,171.37
2019-03-27T22:43:12.458Z,171.47
2019-03-27T22:45:40.961Z,156.37
2019-03-27T22:48:09.281Z,161.67
2019-03-27T22:50:38.014Z,159.80
2019-03-27T22:53:06.506Z,163.67
2019-03-27T22:55:34.764Z,156.13
2019-03-27T22:58:03.362Z,165.50
2019-03-27T23:00:35.911Z,177.97
2019-03-27T23:03:17.499Z,191.40
2019-03-27T23:05:35.038Z,163.27
2019-03-27T23:08:03.285Z,155.77
2019-03-27T23:10:31.943Z,151.30
2019-03-27T23:13:00.183Z,151.60
2019-03-27T23:15:28.734Z,158.73
2019-03-27T23:17:56.927Z,156.17
2019-03-27T23:20:25.475Z,153.20
2019-03-27T23:22:53.968Z,160.50
2019-03-27T23:25:22.154Z,152.30
2019-03-27T23:27:50.479Z,150.77
2019-03-27T23:30:18.966Z,151.87
2019-03-27T23:32:47.456Z,169.40
2019-03-27T23:35:15.999Z,156.67
2019-03-27T23:43:58.612Z,149.53
2019-03-27T23:46:26.798Z,160.97
2019-03-27T23:48:55.433Z,161.90
2019-03-27T23:51:23.675Z,147.60
2019-03-27T23:53:51.862Z,153.50
2019-03-27T23:56:20.406Z,164.03
2019-03-27T23:58:51.294Z,149.40
